createdAt,value
2019-04-30T00:04:06.876Z,7.10
2019-04-30T00:09:17.092Z,7.20
2019-04-30T00:14:22.351Z,7.20
2019-04-30T00:19:27.662Z,7.20
2019-04-30T00:24:32.987Z,7.20
2019-04-30T00:29:38.369Z,7.20
2019-04-30T00:34:45.501Z,7.20
2019-04-30T00:39:52.809Z,7.30
2019-04-30T00:44:59.659Z,7.30
2019-04-30T00:50:06.672Z,7.30
2019-04-30T00:55:12.052Z,7.30
2019-04-30T01:00:25.205Z,7.30
2019-04-30T01:05:25.500Z,7.30
2019-04-30T01:10:32.094Z,7.30
2019-04-30T01:15:39.064Z,7.30
2019-04-30T01:20:44.640Z,7.40
2019-04-30T01:25:51.357Z,7.40
2019-04-30T01:31:01.745Z,7.40
2019-04-30T01:36:09.714Z,7.50
2019-04-30T01:41:12.276Z,7.50
2019-04-30T01:46:18.932Z,7.50
2019-04-30T01:51:24.557Z,7.60
2019-04-30T01:56:45.255Z,7.60
2019-04-30T02:01:51.106Z,7.60
2019-04-30T02:06:56.437Z,7.60
2019-04-30T02:12:01.781Z,7.60
2019-04-30T02:17:07.090Z,7.60
2019-04-30T02:22:12.408Z,7.60
2019-04-30T02:27:19.174Z,7.60
2019-04-30T02:32:24.642Z,7.70
2019-04-30T02:37:40.385Z,7.70
2019-04-30T02:42:44.867Z,7.70
2019-04-30T02:47:50.502Z,7.80
2019-04-30T02:52:56.655Z,7.80
2019-04-30T02:58:01.966Z,7.80
2019-04-30T03:03:10.077Z,7.80
2019-04-30T03:08:14.292Z,7.90
2019-04-30T03:13:20.181Z,7.90
2019-04-30T03:18:30.479Z,8.00
2019-04-30T03:23:36.119Z,8.00
2019-04-30T03:28:41.446Z,8.00
2019-04-30T03:33:46.749Z,8.00
2019-04-30T03:38:52.044Z,8.00
2019-04-30T03:44:16.066Z,8.10
2019-04-30T03:49:04.350Z,8.10
2019-04-30T03:54:10.311Z,8.10
2019-04-30T03:59:15.726Z,8.10
2019-04-30T04:04:33.867Z,8.10
2019-04-30T04:09:44.036Z,8.20
2019-04-30T04:14:50.997Z,8.20
2019-04-30T04:19:56.356Z,8.20
2019-04-30T04:25:03.269Z,8.20
2019-04-30T04:30:10.710Z,8.30
2019-04-30T04:35:15.774Z,8.30
2019-04-30T04:40:21.357Z,8.30
2019-04-30T04:45:26.712Z,8.30
2019-04-30T04:50:32.074Z,8.30
2019-04-30T04:55:39.843Z,8.40
2019-04-30T05:00:44.300Z,8.50
2019-04-30T05:05:50.096Z,8.70
2019-04-30T05:10:56.519Z,8.70
2019-04-30T05:16:02.087Z,8.70
2019-04-30T05:21:08.819Z,8.70
2019-04-30T05:26:14.258Z,8.70
2019-04-30T05:31:21.106Z,8.70
2019-04-30T05:36:26.595Z,8.70
2019-04-30T05:41:31.901Z,8.70
2019-04-30T05:46:37.211Z,8.60
2019-04-30T05:51:52.887Z,8.80
2019-04-30T05:56:49.458Z,8.90
2019-04-30T06:01:54.727Z,9.10
2019-04-30T06:07:00.393Z,9.50
2019-04-30T06:12:30.788Z,9.40
2019-04-30T06:17:36.206Z,9.40
2019-04-30T06:22:41.893Z,9.90
2019-04-30T06:27:48.833Z,9.80
2019-04-30T06:32:55.106Z,9.60
2019-04-30T06:38:00.561Z,9.20
2019-04-30T06:43:05.956Z,8.90
2019-04-30T06:48:12.722Z,8.80
2019-04-30T06:53:19.281Z,8.70
2019-04-30T06:58:24.807Z,8.70
2019-04-30T07:03:30.128Z,8.90
2019-04-30T07:08:59.521Z,9.20
2019-04-30T07:14:04.685Z,10.00
2019-04-30T07:19:09.992Z,11.20
2019-04-30T07:24:15.325Z,11.30
2019-04-30T07:29:20.616Z,10.70
2019-04-30T07:34:25.943Z,10.20
2019-04-30T07:39:33.366Z,10.10
2019-04-30T07:44:39.446Z,10.70
2019-04-30T07:49:51.788Z,11.60
2019-04-30T07:54:52.065Z,12.40
2019-04-30T07:59:59.689Z,13.20
2019-04-30T08:05:10.641Z,13.60
2019-04-30T08:10:16.167Z,14.30
2019-04-30T08:15:21.663Z,14.70
2019-04-30T08:20:29.445Z,11.80
2019-04-30T08:25:34.411Z,11.00
2019-04-30T08:30:39.834Z,10.70
2019-04-30T08:35:45.355Z,10.50
2019-04-30T08:40:56.094Z,10.90
2019-04-30T08:45:59.521Z,11.00
2019-04-30T08:51:06.757Z,11.30
2019-04-30T08:56:13.284Z,11.10
2019-04-30T09:01:19.838Z,12.00
2019-04-30T09:06:29.706Z,13.50
2019-04-30T09:11:50.106Z,13.60
2019-04-30T09:16:44.306Z,12.40
2019-04-30T09:21:52.530Z,12.10
2019-04-30T09:26:59.192Z,12.00
2019-04-30T09:32:05.713Z,12.70
2019-04-30T09:37:12.341Z,13.20
2019-04-30T09:42:19.561Z,13.30
2019-04-30T09:47:26.493Z,12.60
2019-04-30T09:52:33.895Z,13.30
2019-04-30T09:57:39.944Z,14.10
2019-04-30T10:02:45.266Z,13.90
2019-04-30T10:07:50.912Z,14.40
2019-04-30T10:12:59.466Z,14.20
2019-04-30T10:18:09.655Z,12.50
2019-04-30T10:23:30.364Z,14.20
2019-04-30T10:28:53.159Z,14.60
2019-04-30T10:34:01.347Z,15.90
2019-04-30T10:39:10.032Z,15.90
2019-04-30T10:44:15.392Z,15.50
2019-04-30T10:49:20.795Z,16.70
2019-04-30T10:54:26.555Z,15.80
2019-04-30T10:59:33.433Z,15.20
2019-04-30T11:04:44.773Z,14.60
2019-04-30T11:09:52.565Z,16.20
2019-04-30T11:15:00.138Z,17.10
2019-04-30T11:20:10.087Z,17.20
2019-04-30T11:25:16.777Z,16.20
2019-04-30T11:30:26.241Z,16.70
2019-04-30T11:35:33.929Z,17.40
2019-04-30T11:40:42.733Z,19.20
2019-04-30T11:46:28.801Z,19.00
2019-04-30T11:51:39.227Z,18.20
2019-04-30T11:56:50.441Z,17.70
2019-04-30T12:01:59.211Z,18.60
2019-04-30T12:07:21.300Z,19.80
2019-04-30T12:12:28.935Z,20.60
2019-04-30T12:17:36.232Z,20.50
2019-04-30T12:22:43.155Z,20.20
2019-04-30T12:27:51.155Z,19.80
2019-04-30T12:32:59.058Z,18.50
2019-04-30T12:38:05.677Z,18.00
2019-04-30T12:43:11.778Z,17.50
2019-04-30T12:48:22.839Z,16.70
2019-04-30T12:53:37.575Z,16.40
2019-04-30T12:58:42.999Z,16.60
2019-04-30T13:03:58.103Z,17.30
2019-04-30T13:08:55.771Z,17.60
2019-04-30T13:14:02.029Z,17.90
2019-04-30T13:19:09.321Z,17.00
2019-04-30T13:24:14.805Z,16.80
2019-04-30T13:29:26.786Z,16.60
2019-04-30T13:34:45.757Z,16.20
2019-04-30T13:40:25.191Z,16.00
2019-04-30T13:45:30.490Z,16.10
2019-04-30T13:50:35.852Z,16.50
2019-04-30T13:55:45.600Z,16.70
2019-04-30T14:00:49.439Z,16.90
2019-04-30T14:05:54.783Z,16.50
2019-04-30T14:11:00.020Z,16.30
2019-04-30T14:16:05.891Z,16.40
2019-04-30T14:21:11.200Z,16.40
2019-04-30T14:26:16.727Z,16.30
2019-04-30T14:31:22.046Z,16.80
2019-04-30T14:36:29.100Z,17.20
2019-04-30T14:41:35.343Z,17.00
2019-04-30T14:47:01.112Z,16.50
2019-04-30T14:52:06.803Z,17.50
2019-04-30T14:57:22.109Z,17.20
2019-04-30T15:02:53.339Z,18.10
2019-04-30T15:08:00.704Z,17.00
2019-04-30T15:13:06.408Z,17.40
2019-04-30T15:18:11.787Z,17.20
2019-04-30T15:23:24.287Z,16.90
2019-04-30T15:28:32.522Z,17.30
2019-04-30T15:34:02.048Z,16.90
2019-04-30T15:39:17.129Z,17.20
2019-04-30T15:44:22.447Z,17.50
2019-04-30T15:49:28.020Z,17.10
2019-04-30T15:54:33.804Z,16.80
2019-04-30T15:59:41.503Z,17.00
2019-04-30T16:05:04.759Z,17.70
2019-04-30T16:10:29.533Z,17.70
2019-04-30T16:15:35.209Z,17.40
2019-04-30T16:20:41.596Z,17.10
2019-04-30T16:25:47.452Z,16.80
2019-04-30T16:30:54.171Z,16.60
2019-04-30T16:36:00.312Z,16.40
2019-04-30T16:41:08.786Z,16.50
2019-04-30T16:46:13.536Z,16.30
2019-04-30T16:51:18.898Z,16.30
2019-04-30T16:56:24.155Z,16.20
2019-04-30T17:01:31.480Z,15.90
2019-04-30T17:06:39.296Z,15.80
2019-04-30T17:12:15.522Z,15.90
2019-04-30T17:17:20.819Z,16.00
2019-04-30T17:22:26.954Z,16.20
2019-04-30T17:27:32.692Z,16.20
2019-04-30T17:32:39.483Z,16.10
2019-04-30T17:37:45.528Z,15.80
2019-04-30T17:42:50.885Z,15.50
2019-04-30T17:47:56.210Z,15.50
2019-04-30T17:53:01.511Z,15.30
2019-04-30T17:58:06.878Z,15.20
2019-04-30T18:03:13.424Z,15.20
2019-04-30T18:08:18.803Z,15.10
2019-04-30T18:13:24.099Z,14.90
2019-04-30T18:18:35.107Z,14.70
2019-04-30T18:23:59.355Z,14.50
2019-04-30T18:29:04.696Z,14.30
2019-04-30T18:34:10.155Z,13.30
2019-04-30T18:39:15.530Z,13.90
2019-04-30T18:44:21.075Z,13.60
2019-04-30T18:49:26.423Z,13.40
2019-04-30T18:54:31.911Z,13.10
2019-04-30T18:59:37.283Z,12.80
2019-04-30T19:04:43.659Z,10.30
2019-04-30T19:09:55.596Z,12.40
2019-04-30T19:15:35.683Z,12.30
2019-04-30T19:20:51.348Z,12.10
2019-04-30T19:25:56.702Z,11.90
2019-04-30T19:31:02.031Z,11.80
2019-04-30T19:36:07.403Z,11.70
2019-04-30T19:41:12.808Z,11.70
2019-04-30T19:46:18.795Z,11.70
2019-04-30T19:51:24.247Z,11.70
2019-04-30T19:56:32.613Z,11.70
2019-04-30T20:01:36.499Z,11.60
2019-04-30T20:06:41.934Z,11.50
2019-04-30T20:11:49.296Z,11.40
2019-04-30T20:16:54.195Z,11.30
2019-04-30T20:21:59.677Z,11.20
2019-04-30T20:27:09.555Z,11.10
2019-04-30T20:32:13.056Z,11.00
2019-04-30T20:37:19.631Z,10.90
2019-04-30T20:42:25.005Z,10.80
2019-04-30T20:47:30.384Z,10.60
2019-04-30T20:52:36.085Z,10.40
2019-04-30T20:57:41.683Z,10.30
2019-04-30T21:02:48.615Z,10.00
2019-04-30T21:07:54.855Z,9.90
2019-04-30T21:13:00.168Z,9.70
2019-04-30T21:18:05.719Z,9.40
2019-04-30T21:23:11.035Z,9.20
2019-04-30T21:28:16.816Z,9.10
2019-04-30T21:33:28.164Z,9.00
2019-04-30T21:38:33.685Z,9.00
2019-04-30T21:43:39.510Z,9.10
2019-04-30T21:48:45.058Z,9.20
2019-04-30T21:53:50.568Z,9.10
2019-04-30T21:58:55.889Z,8.90
2019-04-30T22:04:01.400Z,8.70
2019-04-30T22:09:09.745Z,8.50
2019-04-30T22:14:16.800Z,8.50
2019-04-30T22:19:22.370Z,8.50
2019-04-30T22:24:30.992Z,8.50
2019-04-30T22:29:41.750Z,8.40
2019-04-30T22:34:43.295Z,8.20
2019-04-30T22:39:54.907Z,8.20
2019-04-30T22:45:01.681Z,8.20
2019-04-30T22:50:08.874Z,7.90
2019-04-30T22:55:14.264Z,7.70
2019-04-30T23:00:29.431Z,7.60
2019-04-30T23:05:34.762Z,7.60
2019-04-30T23:10:40.057Z,7.60
2019-04-30T23:15:45.347Z,7.70
2019-04-30T23:20:50.669Z,7.70
2019-04-30T23:25:55.988Z,7.60
2019-04-30T23:31:01.499Z,7.60
2019-04-30T23:36:07.959Z,7.70
2019-04-30T23:41:13.243Z,7.70
2019-04-30T23:46:18.615Z,7.60
2019-04-30T23:51:23.921Z,7.50
2019-04-30T23:56:29.244Z,7.50
